sensor_id;sensor_type;location;lat;lon;timestamp;temperature;humidity
3275;DHT22;1649;53.672;10.064;2023-06-19T00:01:27;19.60;99.90
3275;DHT22;1649;53.672;10.064;2023-06-19T00:03:53;19.60;99.90
3275;DHT22;1649;53.672;10.064;2023-06-19T00:06:18;19.60;99.90
3275;DHT22;1649;53.672;10.064;2023-06-19T00:08:44;19.70;99.90
3275;DHT22;1649;53.672;10.064;2023-06-19T00:11:09;19.70;99.90
3275;DHT22;1649;53.672;10.064;2023-06-19T00:13:35;19.60;99.90
3275;DHT22;1649;53.672;10.064;2023-06-19T00:16:01;19.50;99.90
3275;DHT22;1649;53.672;10.064;2023-06-19T00:18:27;19.60;99.90
3275;DHT22;1649;53.672;10.064;2023-06-19T00:20:53;19.60;99.90
3275;DHT22;1649;53.672;10.064;2023-06-19T00:23:24;19.60;99.90
3275;DHT22;1649;53.672;10.064;2023-06-19T00:25:49;19.60;99.90
3275;DHT22;1649;53.672;10.064;2023-06-19T00:28:15;19.60;99.90
3275;DHT22;1649;53.672;10.064;2023-06-19T00:30:45;19.60;99.90
3275;DHT22;1649;53.672;10.064;2023-06-19T00:33:10;19.60;99.90
3275;DHT22;1649;53.672;10.064;2023-06-19T00:35:35;19.60;99.90
3275;DHT22;1649;53.672;10.064;2023-06-19T00:38:02;19.60;99.90
3275;DHT22;1649;53.672;10.064;2023-06-19T00:40:29;19.60;99.90
3275;DHT22;1649;53.672;10.064;2023-06-19T00:42:55;19.60;99.90
3275;DHT22;1649;53.672;10.064;2023-06-19T00:45:21;19.60;99.90
3275;DHT22;1649;53.672;10.064;2023-06-19T00:47:46;19.50;99.90
3275;DHT22;1649;53.672;10.064;2023-06-19T00:50:12;19.50;99.90
3275;DHT22;1649;53.672;10.064;2023-06-19T00:52:38;19.20;99.90
3275;DHT22;1649;53.672;10.064;2023-06-19T00:55:05;19.00;99.90
3275;DHT22;1649;53.672;10.064;2023-06-19T00:57:32;18.70;99.90
3275;DHT22;1649;53.672;10.064;2023-06-19T00:59:57;18.70;99.90
3275;DHT22;1649;53.672;10.064;2023-06-19T01:02:25;18.60;99.90
3275;DHT22;1649;53.672;10.064;2023-06-19T01:04:50;18.60;99.90
3275;DHT22;1649;53.672;10.064;2023-06-19T01:10:24;18.80;99.90
3275;DHT22;1649;53.672;10.064;2023-06-19T01:12:56;18.90;99.90
3275;DHT22;1649;53.672;10.064;2023-06-19T01:15:23;18.90;99.90
3275;DHT22;1649;53.672;10.064;2023-06-19T01:17:49;18.90;99.90
3275;DHT22;1649;53.672;10.064;2023-06-19T01:20:16;18.90;99.90
3275;DHT22;1649;53.672;10.064;2023-06-19T01:22:41;19.00;99.90
3275;DHT22;1649;53.672;10.064;2023-06-19T01:25:09;19.00;99.90
3275;DHT22;1649;53.672;10.064;2023-06-19T01:27:35;19.10;99.90
3275;DHT22;1649;53.672;10.064;2023-06-19T01:30:02;19.10;99.90
3275;DHT22;1649;53.672;10.064;2023-06-19T01:34:58;19.10;99.90
3275;DHT22;1649;53.672;10.064;2023-06-19T01:37:25;19.10;99.90
3275;DHT22;1649;53.672;10.064;2023-06-19T01:39:56;19.00;99.90
3275;DHT22;1649;53.672;10.064;2023-06-19T01:42:22;19.10;99.90
3275;DHT22;1649;53.672;10.064;2023-06-19T01:44:49;19.00;99.90
3275;DHT22;1649;53.672;10.064;2023-06-19T01:47:16;19.00;99.90
3275;DHT22;1649;53.672;10.064;2023-06-19T01:49:48;19.10;99.90
3275;DHT22;1649;53.672;10.064;2023-06-19T01:52:14;19.00;99.90
3275;DHT22;1649;53.672;10.064;2023-06-19T01:54:40;19.00;99.90
3275;DHT22;1649;53.672;10.064;2023-06-19T01:57:06;19.10;99.90
3275;DHT22;1649;53.672;10.064;2023-06-19T01:59:32;19.00;99.90
3275;DHT22;1649;53.672;10.064;2023-06-19T02:01:57;19.00;99.90
3275;DHT22;1649;53.672;10.064;2023-06-19T02:04:23;19.00;99.90
3275;DHT22;1649;53.672;10.064;2023-06-19T02:06:48;19.00;99.90
3275;DHT22;1649;53.672;10.064;2023-06-19T02:09:14;19.00;99.90
3275;DHT22;1649;53.672;10.064;2023-06-19T02:11:39;19.00;99.90
3275;DHT22;1649;53.672;10.064;2023-06-19T02:14:04;19.00;99.90
3275;DHT22;1649;53.672;10.064;2023-06-19T02:16:30;19.00;99.90
3275;DHT22;1649;53.672;10.064;2023-06-19T02:18:56;19.00;99.90
3275;DHT22;1649;53.672;10.064;2023-06-19T02:21:22;19.10;99.90
3275;DHT22;1649;53.672;10.064;2023-06-19T02:23:48;19.10;99.90
3275;DHT22;1649;53.672;10.064;2023-06-19T02:26:13;19.20;99.90
3275;DHT22;1649;53.672;10.064;2023-06-19T02:28:39;19.20;99.90
3275;DHT22;1649;53.672;10.064;2023-06-19T02:31:04;19.20;99.90
3275;DHT22;1649;53.672;10.064;2023-06-19T02:33:30;19.30;99.90
3275;DHT22;1649;53.672;10.064;2023-06-19T02:35:56;19.30;99.90
3275;DHT22;1649;53.672;10.064;2023-06-19T02:38:27;19.30;99.90
3275;DHT22;1649;53.672;10.064;2023-06-19T02:40:55;19.30;99.90
3275;DHT22;1649;53.672;10.064;2023-06-19T02:43:22;19.40;99.90
3275;DHT22;1649;53.672;10.064;2023-06-19T02:45:48;19.40;99.90
3275;DHT22;1649;53.672;10.064;2023-06-19T02:48:13;19.50;99.90
3275;DHT22;1649;53.672;10.064;2023-06-19T02:50:39;19.40;99.90
3275;DHT22;1649;53.672;10.064;2023-06-19T02:53:04;19.40;99.90
3275;DHT22;1649;53.672;10.064;2023-06-19T02:55:30;19.50;99.90
3275;DHT22;1649;53.672;10.064;2023-06-19T02:57:55;19.40;99.90
3275;DHT22;1649;53.672;10.064;2023-06-19T03:00:21;19.30;99.90
3275;DHT22;1649;53.672;10.064;2023-06-19T03:02:47;19.40;99.90
3275;DHT22;1649;53.672;10.064;2023-06-19T03:05:13;19.30;99.90
3275;DHT22;1649;53.672;10.064;2023-06-19T03:07:42;19.30;99.90
3275;DHT22;1649;53.672;10.064;2023-06-19T03:10:07;19.20;99.90
3275;DHT22;1649;53.672;10.064;2023-06-19T03:12:33;19.20;99.90
3275;DHT22;1649;53.672;10.064;2023-06-19T03:14:58;19.20;99.90
3275;DHT22;1649;53.672;10.064;2023-06-19T03:17:24;19.20;99.90
3275;DHT22;1649;53.672;10.064;2023-06-19T03:19:49;19.10;99.90
3275;DHT22;1649;53.672;10.064;2023-06-19T03:22:15;19.10;99.90
3275;DHT22;1649;53.672;10.064;2023-06-19T03:24:40;19.10;99.90
3275;DHT22;1649;53.672;10.064;2023-06-19T03:27:06;19.10;99.90
3275;DHT22;1649;53.672;10.064;2023-06-19T03:29:32;19.00;99.90
3275;DHT22;1649;53.672;10.064;2023-06-19T03:31:57;19.00;99.90
3275;DHT22;1649;53.672;10.064;2023-06-19T03:34:23;19.10;99.90
3275;DHT22;1649;53.672;10.064;2023-06-19T03:36:48;19.10;99.90
3275;DHT22;1649;53.672;10.064;2023-06-19T03:39:14;19.10;99.90
3275;DHT22;1649;53.672;10.064;2023-06-19T03:41:39;19.20;99.90
3275;DHT22;1649;53.672;10.064;2023-06-19T03:44:05;19.20;99.90
3275;DHT22;1649;53.672;10.064;2023-06-19T03:46:30;19.20;99.90
3275;DHT22;1649;53.672;10.064;2023-06-19T03:48:56;19.10;99.90
3275;DHT22;1649;53.672;10.064;2023-06-19T03:51:21;19.20;99.90
3275;DHT22;1649;53.672;10.064;2023-06-19T03:53:47;19.10;99.90
3275;DHT22;1649;53.672;10.064;2023-06-19T03:56:12;19.20;99.90
3275;DHT22;1649;53.672;10.064;2023-06-19T03:58:38;19.20;99.90
3275;DHT22;1649;53.672;10.064;2023-06-19T04:01:03;19.20;99.90
3275;DHT22;1649;53.672;10.064;2023-06-19T04:03:30;19.20;99.90
3275;DHT22;1649;53.672;10.064;2023-06-19T04:05:56;19.20;99.90
3275;DHT22;1649;53.672;10.064;2023-06-19T04:08:21;19.30;99.90
3275;DHT22;1649;53.672;10.064;2023-06-19T04:10:47;19.30;99.90
3275;DHT22;1649;53.672;10.064;2023-06-19T04:13:13;19.30;99.90
3275;DHT22;1649;53.672;10.064;2023-06-19T04:15:38;19.30;99.90
3275;DHT22;1649;53.672;10.064;2023-06-19T04:18:04;19.30;99.90
3275;DHT22;1649;53.672;10.064;2023-06-19T04:20:29;19.30;99.90
3275;DHT22;1649;53.672;10.064;2023-06-19T04:22:55;19.40;99.90
3275;DHT22;1649;53.672;10.064;2023-06-19T04:25:20;19.30;99.90
3275;DHT22;1649;53.672;10.064;2023-06-19T04:27:46;19.30;99.90
3275;DHT22;1649;53.672;10.064;2023-06-19T04:30:12;19.30;99.90
3275;DHT22;1649;53.672;10.064;2023-06-19T04:32:37;19.30;99.90
3275;DHT22;1649;53.672;10.064;2023-06-19T04:35:09;19.30;99.90
3275;DHT22;1649;53.672;10.064;2023-06-19T04:37:34;19.30;99.90
3275;DHT22;1649;53.672;10.064;2023-06-19T04:40:00;19.40;99.90
3275;DHT22;1649;53.672;10.064;2023-06-19T04:42:25;19.30;99.90
3275;DHT22;1649;53.672;10.064;2023-06-19T04:44:52;19.40;99.90
3275;DHT22;1649;53.672;10.064;2023-06-19T04:47:19;19.30;99.90
3275;DHT22;1649;53.672;10.064;2023-06-19T04:49:45;19.40;99.90
3275;DHT22;1649;53.672;10.064;2023-06-19T04:52:11;19.40;99.90
3275;DHT22;1649;53.672;10.064;2023-06-19T04:54:36;19.30;99.90
3275;DHT22;1649;53.672;10.064;2023-06-19T04:57:02;19.40;99.90
3275;DHT22;1649;53.672;10.064;2023-06-19T04:59:28;19.40;99.90
3275;DHT22;1649;53.672;10.064;2023-06-19T05:01:59;19.40;99.90
3275;DHT22;1649;53.672;10.064;2023-06-19T05:04:24;19.30;99.90
3275;DHT22;1649;53.672;10.064;2023-06-19T05:06:50;19.30;99.90
3275;DHT22;1649;53.672;10.064;2023-06-19T05:09:16;19.40;99.90
3275;DHT22;1649;53.672;10.064;2023-06-19T05:11:41;19.40;99.90
3275;DHT22;1649;53.672;10.064;2023-06-19T05:14:07;19.30;99.90
3275;DHT22;1649;53.672;10.064;2023-06-19T05:16:36;19.30;99.90
3275;DHT22;1649;53.672;10.064;2023-06-19T05:19:01;19.30;99.90
3275;DHT22;1649;53.672;10.064;2023-06-19T05:21:27;19.30;99.90
3275;DHT22;1649;53.672;10.064;2023-06-19T05:23:52;19.30;99.90
3275;DHT22;1649;53.672;10.064;2023-06-19T05:26:19;19.30;99.90
3275;DHT22;1649;53.672;10.064;2023-06-19T05:28:44;19.40;99.90
3275;DHT22;1649;53.672;10.064;2023-06-19T05:31:10;19.30;99.90
3275;DHT22;1649;53.672;10.064;2023-06-19T05:33:35;19.40;99.90
3275;DHT22;1649;53.672;10.064;2023-06-19T05:36:01;19.40;99.90
3275;DHT22;1649;53.672;10.064;2023-06-19T05:38:26;19.40;99.90
3275;DHT22;1649;53.672;10.064;2023-06-19T05:40:55;19.40;99.90
3275;DHT22;1649;53.672;10.064;2023-06-19T05:43:21;19.40;99.90
3275;DHT22;1649;53.672;10.064;2023-06-19T05:45:47;19.50;99.90
3275;DHT22;1649;53.672;10.064;2023-06-19T05:48:12;19.50;99.90
3275;DHT22;1649;53.672;10.064;2023-06-19T05:50:38;19.40;99.90
3275;DHT22;1649;53.672;10.064;2023-06-19T05:53:04;19.50;99.90
3275;DHT22;1649;53.672;10.064;2023-06-19T05:55:30;19.50;99.90
3275;DHT22;1649;53.672;10.064;2023-06-19T05:57:55;19.50;99.90
3275;DHT22;1649;53.672;10.064;2023-06-19T06:00:21;19.50;99.90
3275;DHT22;1649;53.672;10.064;2023-06-19T06:02:48;19.50;99.90
3275;DHT22;1649;53.672;10.064;2023-06-19T06:05:13;19.50;99.90
3275;DHT22;1649;53.672;10.064;2023-06-19T06:07:39;19.50;99.90
3275;DHT22;1649;53.672;10.064;2023-06-19T06:10:05;19.50;99.90
3275;DHT22;1649;53.672;10.064;2023-06-19T06:12:33;19.50;99.90
3275;DHT22;1649;53.672;10.064;2023-06-19T06:15:01;19.60;99.90
3275;DHT22;1649;53.672;10.064;2023-06-19T06:17:27;19.60;99.90
3275;DHT22;1649;53.672;10.064;2023-06-19T06:19:52;19.60;99.90
3275;DHT22;1649;53.672;10.064;2023-06-19T06:22:18;19.70;99.90
3275;DHT22;1649;53.672;10.064;2023-06-19T06:24:44;19.70;99.90
3275;DHT22;1649;53.672;10.064;2023-06-19T06:27:09;19.70;99.90
3275;DHT22;1649;53.672;10.064;2023-06-19T06:29:35;19.80;99.90
3275;DHT22;1649;53.672;10.064;2023-06-19T06:32:06;19.90;99.90
3275;DHT22;1649;53.672;10.064;2023-06-19T06:34:33;19.80;99.90
3275;DHT22;1649;53.672;10.064;2023-06-19T06:36:59;19.80;99.90
3275;DHT22;1649;53.672;10.064;2023-06-19T06:39:24;19.60;99.90
3275;DHT22;1649;53.672;10.064;2023-06-19T06:41:51;19.50;99.90
3275;DHT22;1649;53.672;10.064;2023-06-19T06:44:16;19.40;99.90
3275;DHT22;1649;53.672;10.064;2023-06-19T06:46:41;19.40;99.90
3275;DHT22;1649;53.672;10.064;2023-06-19T06:49:07;19.40;99.90
3275;DHT22;1649;53.672;10.064;2023-06-19T06:51:33;19.40;99.90
3275;DHT22;1649;53.672;10.064;2023-06-19T06:53:58;19.50;99.90
3275;DHT22;1649;53.672;10.064;2023-06-19T06:56:24;19.60;99.90
3275;DHT22;1649;53.672;10.064;2023-06-19T06:58:49;19.80;99.90
3275;DHT22;1649;53.672;10.064;2023-06-19T07:01:15;19.90;99.90
3275;DHT22;1649;53.672;10.064;2023-06-19T07:03:40;20.00;99.90
3275;DHT22;1649;53.672;10.064;2023-06-19T07:06:06;20.00;99.90
3275;DHT22;1649;53.672;10.064;2023-06-19T07:08:31;20.00;99.90
3275;DHT22;1649;53.672;10.064;2023-06-19T07:10:57;19.90;99.90
3275;DHT22;1649;53.672;10.064;2023-06-19T07:13:23;19.80;99.90
3275;DHT22;1649;53.672;10.064;2023-06-19T07:15:48;19.60;99.90
3275;DHT22;1649;53.672;10.064;2023-06-19T07:18:14;19.50;99.90
3275;DHT22;1649;53.672;10.064;2023-06-19T07:20:39;19.60;99.90
3275;DHT22;1649;53.672;10.064;2023-06-19T07:23:05;19.60;99.90
3275;DHT22;1649;53.672;10.064;2023-06-19T07:25:31;19.60;99.90
3275;DHT22;1649;53.672;10.064;2023-06-19T07:27:59;19.60;99.90
3275;DHT22;1649;53.672;10.064;2023-06-19T07:30:24;19.70;99.90
3275;DHT22;1649;53.672;10.064;2023-06-19T07:32:50;19.70;99.90
3275;DHT22;1649;53.672;10.064;2023-06-19T07:35:15;19.70;99.90
3275;DHT22;1649;53.672;10.064;2023-06-19T07:37:41;19.90;99.90
3275;DHT22;1649;53.672;10.064;2023-06-19T07:40:07;19.90;99.90
3275;DHT22;1649;53.672;10.064;2023-06-19T07:42:33;19.90;99.90
3275;DHT22;1649;53.672;10.064;2023-06-19T07:44:58;19.90;99.90
3275;DHT22;1649;53.672;10.064;2023-06-19T07:47:25;19.80;99.90
3275;DHT22;1649;53.672;10.064;2023-06-19T07:49:51;20.00;99.90
3275;DHT22;1649;53.672;10.064;2023-06-19T07:52:17;19.90;99.90
3275;DHT22;1649;53.672;10.064;2023-06-19T07:54:54;20.00;99.90
3275;DHT22;1649;53.672;10.064;2023-06-19T07:57:20;20.00;99.90
3275;DHT22;1649;53.672;10.064;2023-06-19T07:59:47;20.00;99.90
3275;DHT22;1649;53.672;10.064;2023-06-19T08:02:12;20.10;99.90
3275;DHT22;1649;53.672;10.064;2023-06-19T08:04:38;20.10;99.90
3275;DHT22;1649;53.672;10.064;2023-06-19T08:07:03;20.20;99.90
3275;DHT22;1649;53.672;10.064;2023-06-19T08:09:29;20.20;99.90
3275;DHT22;1649;53.672;10.064;2023-06-19T08:11:54;20.30;99.90
3275;DHT22;1649;53.672;10.064;2023-06-19T08:14:20;20.40;99.90
3275;DHT22;1649;53.672;10.064;2023-06-19T08:16:45;20.60;99.90
3275;DHT22;1649;53.672;10.064;2023-06-19T08:19:11;20.80;99.90
3275;DHT22;1649;53.672;10.064;2023-06-19T08:21:36;21.20;99.90
3275;DHT22;1649;53.672;10.064;2023-06-19T08:24:02;21.60;99.90
3275;DHT22;1649;53.672;10.064;2023-06-19T08:26:27;22.00;99.90
3275;DHT22;1649;53.672;10.064;2023-06-19T08:28:53;22.50;99.90
3275;DHT22;1649;53.672;10.064;2023-06-19T08:31:19;22.80;99.90
3275;DHT22;1649;53.672;10.064;2023-06-19T08:33:47;23.20;99.90
3275;DHT22;1649;53.672;10.064;2023-06-19T08:36:13;23.60;99.90
3275;DHT22;1649;53.672;10.064;2023-06-19T08:38:39;24.00;99.90
3275;DHT22;1649;53.672;10.064;2023-06-19T08:41:05;24.10;99.90
3275;DHT22;1649;53.672;10.064;2023-06-19T08:43:30;24.30;99.90
3275;DHT22;1649;53.672;10.064;2023-06-19T08:46:25;24.70;99.90
3275;DHT22;1649;53.672;10.064;2023-06-19T08:48:51;24.40;99.70
3275;DHT22;1649;53.672;10.064;2023-06-19T08:51:16;25.00;99.90
3275;DHT22;1649;53.672;10.064;2023-06-19T08:53:49;25.60;99.80
3275;DHT22;1649;53.672;10.064;2023-06-19T08:56:18;26.60;97.30
3275;DHT22;1649;53.672;10.064;2023-06-19T08:58:43;27.10;95.10
3275;DHT22;1649;53.672;10.064;2023-06-19T09:01:09;27.50;93.30
3275;DHT22;1649;53.672;10.064;2023-06-19T09:03:34;27.70;92.30
3275;DHT22;1649;53.672;10.064;2023-06-19T09:06:07;28.00;91.50
3275;DHT22;1649;53.672;10.064;2023-06-19T09:08:33;28.10;91.30
3275;DHT22;1649;53.672;10.064;2023-06-19T09:11:02;27.70;92.30
3275;DHT22;1649;53.672;10.064;2023-06-19T09:13:29;27.20;90.90
3275;DHT22;1649;53.672;10.064;2023-06-19T09:16:03;26.60;91.90
3275;DHT22;1649;53.672;10.064;2023-06-19T09:18:30;26.40;93.20
3275;DHT22;1649;53.672;10.064;2023-06-19T09:20:57;26.50;93.60
3275;DHT22;1649;53.672;10.064;2023-06-19T09:23:27;26.30;93.00
3275;DHT22;1649;53.672;10.064;2023-06-19T09:25:53;26.30;93.70
3275;DHT22;1649;53.672;10.064;2023-06-19T09:33:18;26.70;92.60
3275;DHT22;1649;53.672;10.064;2023-06-19T09:35:43;26.50;92.90
3275;DHT22;1649;53.672;10.064;2023-06-19T09:38:10;26.40;93.50
3275;DHT22;1649;53.672;10.064;2023-06-19T09:40:37;26.50;92.70
3275;DHT22;1649;53.672;10.064;2023-06-19T09:43:03;26.40;93.10
3275;DHT22;1649;53.672;10.064;2023-06-19T09:45:31;26.40;93.80
3275;DHT22;1649;53.672;10.064;2023-06-19T09:47:57;26.20;93.30
3275;DHT22;1649;53.672;10.064;2023-06-19T09:50:23;26.60;94.60
3275;DHT22;1649;53.672;10.064;2023-06-19T09:52:52;27.50;93.10
3275;DHT22;1649;53.672;10.064;2023-06-19T09:55:22;27.70;92.30
3275;DHT22;1649;53.672;10.064;2023-06-19T09:57:49;27.80;91.70
3275;DHT22;1649;53.672;10.064;2023-06-19T10:00:15;28.20;91.70
3275;DHT22;1649;53.672;10.064;2023-06-19T10:02:44;28.40;91.00
3275;DHT22;1649;53.672;10.064;2023-06-19T10:05:10;28.40;90.60
3275;DHT22;1649;53.672;10.064;2023-06-19T10:07:38;28.60;90.00
3275;DHT22;1649;53.672;10.064;2023-06-19T10:10:08;28.70;90.10
3275;DHT22;1649;53.672;10.064;2023-06-19T10:12:39;28.70;90.20
3275;DHT22;1649;53.672;10.064;2023-06-19T10:15:28;28.80;89.20
3275;DHT22;1649;53.672;10.064;2023-06-19T10:18:05;28.30;88.40
3275;DHT22;1649;53.672;10.064;2023-06-19T10:20:36;28.30;89.70
3275;DHT22;1649;53.672;10.064;2023-06-19T10:23:12;28.70;88.80
3275;DHT22;1649;53.672;10.064;2023-06-19T10:25:42;29.10;88.90
3275;DHT22;1649;53.672;10.064;2023-06-19T10:28:18;29.50;87.20
3275;DHT22;1649;53.672;10.064;2023-06-19T10:30:44;30.00;83.70
3275;DHT22;1649;53.672;10.064;2023-06-19T10:33:09;30.20;85.80
3275;DHT22;1649;53.672;10.064;2023-06-19T10:35:39;30.40;81.90
3275;DHT22;1649;53.672;10.064;2023-06-19T10:38:06;30.10;83.80
3275;DHT22;1649;53.672;10.064;2023-06-19T10:40:32;29.40;84.40
3275;DHT22;1649;53.672;10.064;2023-06-19T10:42:57;29.20;84.70
3275;DHT22;1649;53.672;10.064;2023-06-19T10:45:23;28.60;84.70
3275;DHT22;1649;53.672;10.064;2023-06-19T10:47:54;28.30;86.30
3275;DHT22;1649;53.672;10.064;2023-06-19T10:50:21;28.20;87.50
3275;DHT22;1649;53.672;10.064;2023-06-19T10:52:47;28.40;88.30
3275;DHT22;1649;53.672;10.064;2023-06-19T10:55:14;28.90;86.50
3275;DHT22;1649;53.672;10.064;2023-06-19T10:57:44;29.80;87.80
3275;DHT22;1649;53.672;10.064;2023-06-19T11:00:10;30.60;84.90
3275;DHT22;1649;53.672;10.064;2023-06-19T11:02:39;31.10;81.70
3275;DHT22;1649;53.672;10.064;2023-06-19T11:05:05;31.10;80.30
3275;DHT22;1649;53.672;10.064;2023-06-19T11:07:32;31.10;81.80
3275;DHT22;1649;53.672;10.064;2023-06-19T11:09:57;30.90;83.00
3275;DHT22;1649;53.672;10.064;2023-06-19T11:12:23;31.20;80.90
3275;DHT22;1649;53.672;10.064;2023-06-19T11:14:49;31.40;80.10
3275;DHT22;1649;53.672;10.064;2023-06-19T11:17:15;31.40;80.70
3275;DHT22;1649;53.672;10.064;2023-06-19T11:19:41;30.70;78.70
3275;DHT22;1649;53.672;10.064;2023-06-19T11:22:09;30.60;79.50
3275;DHT22;1649;53.672;10.064;2023-06-19T11:24:34;30.30;81.10
3275;DHT22;1649;53.672;10.064;2023-06-19T11:27:00;30.50;81.80
3275;DHT22;1649;53.672;10.064;2023-06-19T11:29:28;30.90;79.70
3275;DHT22;1649;53.672;10.064;2023-06-19T11:34:33;32.00;80.50
3275;DHT22;1649;53.672;10.064;2023-06-19T11:36:58;32.10;77.10
3275;DHT22;1649;53.672;10.064;2023-06-19T11:39:24;31.80;77.60
3275;DHT22;1649;53.672;10.064;2023-06-19T11:41:50;31.90;79.80
3275;DHT22;1649;53.672;10.064;2023-06-19T11:44:16;32.00;77.40
3275;DHT22;1649;53.672;10.064;2023-06-19T11:46:42;31.80;75.90
3275;DHT22;1649;53.672;10.064;2023-06-19T11:51:37;30.80;77.50
3275;DHT22;1649;53.672;10.064;2023-06-19T11:54:05;30.40;77.70
3275;DHT22;1649;53.672;10.064;2023-06-19T11:56:31;30.30;79.50
3275;DHT22;1649;53.672;10.064;2023-06-19T11:58:57;30.50;78.50
3275;DHT22;1649;53.672;10.064;2023-06-19T12:01:22;30.60;77.90
3275;DHT22;1649;53.672;10.064;2023-06-19T12:03:48;31.00;77.40
3275;DHT22;1649;53.672;10.064;2023-06-19T12:06:13;31.40;75.80
3275;DHT22;1649;53.672;10.064;2023-06-19T12:08:39;31.50;75.90
3275;DHT22;1649;53.672;10.064;2023-06-19T12:11:04;31.70;76.10
3275;DHT22;1649;53.672;10.064;2023-06-19T12:13:33;31.60;75.50
3275;DHT22;1649;53.672;10.064;2023-06-19T12:15:59;31.50;76.40
3275;DHT22;1649;53.672;10.064;2023-06-19T12:18:24;31.50;76.60
3275;DHT22;1649;53.672;10.064;2023-06-19T12:20:50;31.50;74.70
3275;DHT22;1649;53.672;10.064;2023-06-19T12:23:15;31.20;73.50
3275;DHT22;1649;53.672;10.064;2023-06-19T12:25:41;30.90;75.30
3275;DHT22;1649;53.672;10.064;2023-06-19T12:28:06;30.70;76.30
3275;DHT22;1649;53.672;10.064;2023-06-19T12:30:36;30.20;76.40
3275;DHT22;1649;53.672;10.064;2023-06-19T12:33:01;29.90;78.40
3275;DHT22;1649;53.672;10.064;2023-06-19T12:35:28;29.70;78.60
3275;DHT22;1649;53.672;10.064;2023-06-19T12:37:54;29.50;80.00
3275;DHT22;1649;53.672;10.064;2023-06-19T12:40:20;29.20;79.70
3275;DHT22;1649;53.672;10.064;2023-06-19T12:42:46;29.00;80.50
3275;DHT22;1649;53.672;10.064;2023-06-19T12:45:12;28.80;81.20
3275;DHT22;1649;53.672;10.064;2023-06-19T12:47:38;28.80;82.60
3275;DHT22;1649;53.672;10.064;2023-06-19T12:50:03;29.10;82.70
3275;DHT22;1649;53.672;10.064;2023-06-19T12:52:29;29.40;84.00
3275;DHT22;1649;53.672;10.064;2023-06-19T12:54:56;29.70;82.10
3275;DHT22;1649;53.672;10.064;2023-06-19T12:57:21;29.80;82.10
3275;DHT22;1649;53.672;10.064;2023-06-19T12:59:47;29.90;82.00
3275;DHT22;1649;53.672;10.064;2023-06-19T13:02:12;29.80;83.00
3275;DHT22;1649;53.672;10.064;2023-06-19T13:04:38;29.70;82.60
3275;DHT22;1649;53.672;10.064;2023-06-19T13:07:03;29.60;83.40
3275;DHT22;1649;53.672;10.064;2023-06-19T13:09:29;29.60;82.80
3275;DHT22;1649;53.672;10.064;2023-06-19T13:11:55;29.70;84.00
3275;DHT22;1649;53.672;10.064;2023-06-19T13:14:20;29.90;84.50
3275;DHT22;1649;53.672;10.064;2023-06-19T13:16:46;30.20;82.40
3275;DHT22;1649;53.672;10.064;2023-06-19T13:19:12;30.10;84.20
3275;DHT22;1649;53.672;10.064;2023-06-19T13:21:37;29.90;83.80
3275;DHT22;1649;53.672;10.064;2023-06-19T13:24:03;29.70;84.10
3275;DHT22;1649;53.672;10.064;2023-06-19T13:26:29;29.70;84.20
3275;DHT22;1649;53.672;10.064;2023-06-19T13:28:54;29.70;85.60
3275;DHT22;1649;53.672;10.064;2023-06-19T13:31:24;29.90;85.70
3275;DHT22;1649;53.672;10.064;2023-06-19T13:33:49;29.80;84.10
3275;DHT22;1649;53.672;10.064;2023-06-19T13:36:15;29.50;83.80
3275;DHT22;1649;53.672;10.064;2023-06-19T13:38:40;29.20;85.80
3275;DHT22;1649;53.672;10.064;2023-06-19T13:41:06;29.00;86.00
3275;DHT22;1649;53.672;10.064;2023-06-19T13:43:32;28.80;86.70
3275;DHT22;1649;53.672;10.064;2023-06-19T13:45:57;28.50;88.00
3275;DHT22;1649;53.672;10.064;2023-06-19T13:48:23;28.10;90.90
3275;DHT22;1649;53.672;10.064;2023-06-19T13:50:48;27.70;92.10
3275;DHT22;1649;53.672;10.064;2023-06-19T13:53:14;27.40;94.30
3275;DHT22;1649;53.672;10.064;2023-06-19T13:55:39;27.30;95.60
3275;DHT22;1649;53.672;10.064;2023-06-19T13:58:05;27.40;97.20
3275;DHT22;1649;53.672;10.064;2023-06-19T14:00:30;27.60;97.80
3275;DHT22;1649;53.672;10.064;2023-06-19T14:02:56;28.10;97.10
3275;DHT22;1649;53.672;10.064;2023-06-19T14:05:21;28.30;97.30
3275;DHT22;1649;53.672;10.064;2023-06-19T14:07:47;28.60;95.90
3275;DHT22;1649;53.672;10.064;2023-06-19T14:10:12;28.70;95.30
3275;DHT22;1649;53.672;10.064;2023-06-19T14:12:38;28.60;94.50
3275;DHT22;1649;53.672;10.064;2023-06-19T14:15:06;28.70;94.70
3275;DHT22;1649;53.672;10.064;2023-06-19T14:17:32;28.70;94.80
3275;DHT22;1649;53.672;10.064;2023-06-19T14:19:58;28.90;94.40
3275;DHT22;1649;53.672;10.064;2023-06-19T14:22:23;29.00;94.30
3275;DHT22;1649;53.672;10.064;2023-06-19T14:24:49;29.10;95.10
3275;DHT22;1649;53.672;10.064;2023-06-19T14:27:15;28.90;94.50
3275;DHT22;1649;53.672;10.064;2023-06-19T14:29:40;28.70;95.00
3275;DHT22;1649;53.672;10.064;2023-06-19T14:32:06;28.40;96.10
3275;DHT22;1649;53.672;10.064;2023-06-19T14:34:31;28.20;96.40
3275;DHT22;1649;53.672;10.064;2023-06-19T14:36:57;28.00;97.10
3275;DHT22;1649;53.672;10.064;2023-06-19T14:39:22;27.60;98.10
3275;DHT22;1649;53.672;10.064;2023-06-19T14:41:48;27.80;98.60
3275;DHT22;1649;53.672;10.064;2023-06-19T14:44:13;28.10;97.60
3275;DHT22;1649;53.672;10.064;2023-06-19T14:46:40;28.20;96.40
3275;DHT22;1649;53.672;10.064;2023-06-19T14:49:06;28.20;96.50
3275;DHT22;1649;53.672;10.064;2023-06-19T14:51:32;28.10;96.50
3275;DHT22;1649;53.672;10.064;2023-06-19T14:53:57;28.20;96.30
3275;DHT22;1649;53.672;10.064;2023-06-19T14:56:23;28.20;95.80
3275;DHT22;1649;53.672;10.064;2023-06-19T14:58:49;28.20;95.90
3275;DHT22;1649;53.672;10.064;2023-06-19T15:01:15;28.00;95.80
3275;DHT22;1649;53.672;10.064;2023-06-19T15:03:42;27.70;96.50
3275;DHT22;1649;53.672;10.064;2023-06-19T15:06:07;27.60;97.20
3275;DHT22;1649;53.672;10.064;2023-06-19T15:08:33;27.50;96.70
3275;DHT22;1649;53.672;10.064;2023-06-19T15:11:00;27.50;96.90
3275;DHT22;1649;53.672;10.064;2023-06-19T15:13:26;27.40;97.30
3275;DHT22;1649;53.672;10.064;2023-06-19T15:15:52;27.40;98.30
3275;DHT22;1649;53.672;10.064;2023-06-19T15:18:17;27.20;98.80
3275;DHT22;1649;53.672;10.064;2023-06-19T15:20:42;27.10;98.70
3275;DHT22;1649;53.672;10.064;2023-06-19T15:23:08;27.10;99.30
3275;DHT22;1649;53.672;10.064;2023-06-19T15:25:34;27.00;99.60
3275;DHT22;1649;53.672;10.064;2023-06-19T15:28:00;27.10;99.80
3275;DHT22;1649;53.672;10.064;2023-06-19T15:30:26;27.20;99.90
3275;DHT22;1649;53.672;10.064;2023-06-19T15:32:52;27.30;99.80
3275;DHT22;1649;53.672;10.064;2023-06-19T15:35:17;27.40;99.60
3275;DHT22;1649;53.672;10.064;2023-06-19T15:37:43;27.40;99.80
3275;DHT22;1649;53.672;10.064;2023-06-19T15:40:08;27.30;99.90
3275;DHT22;1649;53.672;10.064;2023-06-19T15:42:34;27.30;99.10
3275;DHT22;1649;53.672;10.064;2023-06-19T15:45:00;27.20;99.40
3275;DHT22;1649;53.672;10.064;2023-06-19T15:47:25;27.10;99.30
3275;DHT22;1649;53.672;10.064;2023-06-19T15:49:51;27.20;99.90
3275;DHT22;1649;53.672;10.064;2023-06-19T15:52:16;27.40;99.40
3275;DHT22;1649;53.672;10.064;2023-06-19T15:54:42;27.30;98.40